createdAt,value
2018-11-07T00:00:54.311Z,9.80
2018-11-07T00:03:21.515Z,9.80
2018-11-07T00:05:48.676Z,9.80
2018-11-07T00:08:16.425Z,9.90
2018-11-07T00:10:43.474Z,9.90
2018-11-07T00:13:10.665Z,9.90
2018-11-07T00:15:37.806Z,9.90
2018-11-07T00:18:05.308Z,9.80
2018-11-07T00:20:32.495Z,9.80
2018-11-07T00:22:59.710Z,9.80
2018-11-07T00:25:26.866Z,9.80
2018-11-07T00:27:54.175Z,9.70
2018-11-07T00:30:21.391Z,9.70
2018-11-07T00:32:48.485Z,9.80
2018-11-07T00:35:16.780Z,9.70
2018-11-07T00:37:43.784Z,9.70
2018-11-07T00:40:11.621Z,9.70
2018-11-07T00:42:38.808Z,9.60
2018-11-07T00:45:07.438Z,9.60
2018-11-07T00:47:34.602Z,9.60
2018-11-07T00:50:01.722Z,9.50
2018-11-07T00:52:28.755Z,9.50
2018-11-07T00:54:55.881Z,9.50
2018-11-07T00:57:23.029Z,9.50
2018-11-07T00:59:50.176Z,9.70
2018-11-07T01:02:17.244Z,9.70
2018-11-07T01:04:44.380Z,9.70
2018-11-07T01:07:11.521Z,9.60
2018-11-07T01:09:38.675Z,9.60
2018-11-07T01:12:05.754Z,9.60
2018-11-07T01:14:32.916Z,9.60
2018-11-07T01:17:00.065Z,9.60
2018-11-07T01:19:27.175Z,9.60
2018-11-07T01:21:54.280Z,9.60
2018-11-07T01:24:21.432Z,9.50
2018-11-07T01:26:48.642Z,9.40
2018-11-07T01:29:15.951Z,9.40
2018-11-07T01:31:43.092Z,9.50
2018-11-07T01:34:10.261Z,9.50
2018-11-07T01:36:37.672Z,9.50
2018-11-07T01:39:06.809Z,9.50
2018-11-07T01:41:34.018Z,9.50
2018-11-07T01:44:02.220Z,9.50
2018-11-07T01:46:29.378Z,9.40
2018-11-07T01:48:56.596Z,9.30
2018-11-07T01:51:23.959Z,9.30
2018-11-07T01:53:51.155Z,9.20
2018-11-07T01:56:18.363Z,9.20
2018-11-07T01:58:45.609Z,9.20
2018-11-07T02:01:12.835Z,9.20
2018-11-07T02:03:39.995Z,9.10
2018-11-07T02:06:07.137Z,9.00
2018-11-07T02:08:34.273Z,9.00
2018-11-07T02:11:01.581Z,8.90
2018-11-07T02:13:28.780Z,9.00
2018-11-07T02:15:56.014Z,9.00
2018-11-07T02:18:23.179Z,8.90
2018-11-07T02:20:50.389Z,8.90
2018-11-07T02:23:17.479Z,8.80
2018-11-07T02:25:44.666Z,8.80
2018-11-07T02:28:11.923Z,8.70
2018-11-07T02:30:39.098Z,8.70
2018-11-07T02:33:06.461Z,8.70
2018-11-07T02:35:33.733Z,8.60
2018-11-07T02:38:00.861Z,8.60
2018-11-07T02:40:28.106Z,8.60
2018-11-07T02:42:55.207Z,8.60
2018-11-07T02:45:22.378Z,8.70
2018-11-07T02:47:49.853Z,8.60
2018-11-07T02:50:17.076Z,8.60
2018-11-07T02:52:44.246Z,8.60
2018-11-07T02:55:11.445Z,8.60
2018-11-07T02:57:38.693Z,8.60
2018-11-07T03:00:07.539Z,8.60
2018-11-07T03:02:34.675Z,8.60
2018-11-07T03:05:01.863Z,8.60
2018-11-07T03:07:29.094Z,8.60
2018-11-07T03:09:56.301Z,8.60
2018-11-07T03:12:23.440Z,8.60
2018-11-07T03:14:50.599Z,8.50
2018-11-07T03:17:17.817Z,8.50
2018-11-07T03:19:45.013Z,8.50
2018-11-07T03:22:12.214Z,8.60
2018-11-07T03:24:39.343Z,8.60
2018-11-07T03:27:06.512Z,8.50
2018-11-07T03:29:33.799Z,8.50
2018-11-07T03:32:00.977Z,8.50
2018-11-07T03:34:28.154Z,8.40
2018-11-07T03:36:55.394Z,8.40
2018-11-07T03:39:22.600Z,8.30
2018-11-07T03:41:49.921Z,8.30
2018-11-07T03:44:17.139Z,8.40
2018-11-07T03:46:44.358Z,8.40
2018-11-07T03:49:14.005Z,8.40
2018-11-07T03:51:41.217Z,8.40
2018-11-07T03:54:08.382Z,8.30
2018-11-07T03:56:35.663Z,8.30
2018-11-07T03:59:02.835Z,8.30
2018-11-07T04:01:30.041Z,8.40
2018-11-07T04:03:57.237Z,8.30
2018-11-07T04:06:24.409Z,8.30
2018-11-07T04:08:51.663Z,8.40
2018-11-07T04:11:18.824Z,8.30
2018-11-07T04:13:46.032Z,8.20
2018-11-07T04:16:13.314Z,8.20
2018-11-07T04:18:40.481Z,8.20
2018-11-07T04:21:07.687Z,8.10
2018-11-07T04:23:35.016Z,8.00
2018-11-07T04:26:02.184Z,7.80
2018-11-07T04:28:29.346Z,7.80
2018-11-07T04:30:56.477Z,7.80
2018-11-07T04:33:23.716Z,7.80
2018-11-07T04:35:50.969Z,7.80
2018-11-07T04:38:18.311Z,7.80
2018-11-07T04:40:45.532Z,7.90
2018-11-07T04:43:12.761Z,7.90
2018-11-07T04:45:40.085Z,7.90
2018-11-07T04:48:07.220Z,7.80
2018-11-07T04:50:36.519Z,7.70
2018-11-07T04:53:03.779Z,7.70
2018-11-07T04:55:30.961Z,7.70
2018-11-07T04:57:58.243Z,7.70
2018-11-07T05:00:25.525Z,7.80
2018-11-07T05:02:52.653Z,7.70
2018-11-07T05:05:19.892Z,7.70
2018-11-07T05:07:47.364Z,7.60
2018-11-07T05:10:14.484Z,7.60
2018-11-07T05:12:41.691Z,7.50
2018-11-07T05:15:09.586Z,7.40
2018-11-07T05:17:36.744Z,7.50
2018-11-07T05:20:05.342Z,7.40
2018-11-07T05:22:32.521Z,7.40
2018-11-07T05:24:59.768Z,7.50
2018-11-07T05:27:26.923Z,7.40
2018-11-07T05:29:54.147Z,7.30
2018-11-07T05:32:21.492Z,7.10
2018-11-07T05:34:48.601Z,7.00
2018-11-07T05:37:15.978Z,7.00
2018-11-07T05:39:44.640Z,7.10
2018-11-07T05:42:11.826Z,7.20
2018-11-07T05:44:38.983Z,7.30
2018-11-07T05:47:06.650Z,7.30
2018-11-07T05:49:34.340Z,7.30
2018-11-07T05:52:01.708Z,7.30
2018-11-07T05:54:28.926Z,7.20
2018-11-07T05:56:56.185Z,7.10
2018-11-07T05:59:23.457Z,7.10
2018-11-07T06:01:57.463Z,7.20
2018-11-07T06:04:24.664Z,7.20
2018-11-07T06:06:51.841Z,7.30
2018-11-07T06:09:19.029Z,7.10
2018-11-07T06:11:47.358Z,7.00
2018-11-07T06:14:14.591Z,7.00
2018-11-07T06:16:41.778Z,7.00
2018-11-07T06:19:09.100Z,7.10
2018-11-07T06:21:36.366Z,7.20
2018-11-07T06:24:03.602Z,7.20
2018-11-07T06:26:30.699Z,7.20
2018-11-07T06:28:57.903Z,7.10
2018-11-07T06:31:25.097Z,7.20
2018-11-07T06:33:52.352Z,7.20
2018-11-07T06:36:19.542Z,7.30
2018-11-07T06:38:46.956Z,7.30
2018-11-07T06:41:14.148Z,7.40
2018-11-07T06:43:41.347Z,7.50
2018-11-07T06:46:09.682Z,7.50
2018-11-07T06:48:36.916Z,7.50
2018-11-07T06:51:04.190Z,7.40
2018-11-07T06:53:31.451Z,7.50
2018-11-07T06:55:59.011Z,7.40
2018-11-07T06:58:26.374Z,7.40
2018-11-07T07:00:53.588Z,7.40
2018-11-07T07:03:20.806Z,7.30
2018-11-07T07:05:47.997Z,7.20
2018-11-07T07:08:15.193Z,7.20
2018-11-07T07:10:42.549Z,7.20
2018-11-07T07:13:09.801Z,7.20
2018-11-07T07:15:37.024Z,7.20
2018-11-07T07:18:04.739Z,7.20
2018-11-07T07:20:31.926Z,7.30
2018-11-07T07:22:59.170Z,7.30
2018-11-07T07:25:26.539Z,7.30
2018-11-07T07:27:53.688Z,7.40
2018-11-07T07:30:21.531Z,7.50
2018-11-07T07:32:49.018Z,7.50
2018-11-07T07:35:16.526Z,7.50
2018-11-07T07:37:44.897Z,7.60
2018-11-07T07:40:13.315Z,7.50
2018-11-07T07:42:41.510Z,7.50
2018-11-07T07:45:11.125Z,7.50
2018-11-07T07:47:38.650Z,7.60
2018-11-07T07:50:10.385Z,7.80
2018-11-07T07:52:37.664Z,7.90
2018-11-07T07:55:05.341Z,7.90
2018-11-07T07:57:32.470Z,8.00
2018-11-07T07:59:59.629Z,8.00
2018-11-07T08:02:26.890Z,8.10
2018-11-07T08:04:54.226Z,8.30
2018-11-07T08:07:21.408Z,8.30
2018-11-07T08:09:48.684Z,8.50
2018-11-07T08:12:15.841Z,8.50
2018-11-07T08:14:43.130Z,8.60
2018-11-07T08:17:10.295Z,8.70
2018-11-07T08:19:37.486Z,8.70
2018-11-07T08:22:05.129Z,8.80
2018-11-07T08:24:32.307Z,8.90
2018-11-07T08:26:59.530Z,8.90
2018-11-07T08:29:26.738Z,9.10
2018-11-07T08:31:54.008Z,9.20
2018-11-07T08:34:21.294Z,9.20
2018-11-07T08:36:48.735Z,9.20
2018-11-07T08:39:16.033Z,9.30
2018-11-07T08:41:43.215Z,9.20
2018-11-07T08:44:10.525Z,9.40
2018-11-07T08:46:41.014Z,9.40
2018-11-07T08:49:08.212Z,9.50
2018-11-07T08:51:35.467Z,9.70
2018-11-07T08:54:03.045Z,9.70
2018-11-07T08:56:31.465Z,9.70
2018-11-07T08:58:58.716Z,9.80
2018-11-07T09:01:26.033Z,9.80
2018-11-07T09:03:53.194Z,10.00
2018-11-07T09:06:20.497Z,10.10
2018-11-07T09:08:47.666Z,10.20
2018-11-07T09:11:14.822Z,10.20
2018-11-07T09:13:43.047Z,10.30
2018-11-07T09:16:10.180Z,10.40
2018-11-07T09:18:37.541Z,10.40
2018-11-07T09:21:04.785Z,10.50
2018-11-07T09:23:31.952Z,10.50
2018-11-07T09:25:59.258Z,10.50
2018-11-07T09:28:26.427Z,10.60
2018-11-07T09:30:53.537Z,10.70
2018-11-07T09:33:20.703Z,10.80
2018-11-07T09:35:47.855Z,10.80
2018-11-07T09:38:15.005Z,10.90
2018-11-07T09:40:42.233Z,11.10
2018-11-07T09:43:09.369Z,11.20
2018-11-07T09:45:38.706Z,11.20
2018-11-07T09:48:05.930Z,11.30
2018-11-07T09:50:33.180Z,11.20
2018-11-07T09:53:00.432Z,11.20
2018-11-07T09:55:27.585Z,11.20
2018-11-07T09:57:54.785Z,11.20
2018-11-07T10:00:22.109Z,11.30
2018-11-07T10:02:49.266Z,11.50
2018-11-07T10:05:17.649Z,11.60
2018-11-07T10:07:44.821Z,11.70
2018-11-07T10:10:14.067Z,12.00
2018-11-07T10:12:41.747Z,12.20
2018-11-07T10:15:09.260Z,12.30
2018-11-07T10:17:36.458Z,12.40
2018-11-07T10:20:06.249Z,12.50
2018-11-07T10:22:33.477Z,12.60
2018-11-07T10:25:00.708Z,12.70
2018-11-07T10:27:28.200Z,12.80
2018-11-07T10:29:55.327Z,12.90
2018-11-07T10:32:22.325Z,13.10
2018-11-07T10:34:49.430Z,13.20
2018-11-07T10:37:16.757Z,13.30
2018-11-07T10:39:44.033Z,13.40
2018-11-07T10:42:11.162Z,13.50
2018-11-07T10:44:38.329Z,13.60
2018-11-07T10:47:05.535Z,13.80
2018-11-07T10:49:32.805Z,13.90
2018-11-07T10:52:00.065Z,13.90
2018-11-07T10:54:27.545Z,13.90
2018-11-07T10:56:54.756Z,13.90
2018-11-07T10:59:21.944Z,13.80
2018-11-07T11:01:54.876Z,13.90
2018-11-07T11:04:22.024Z,14.10
2018-11-07T11:06:49.337Z,14.30
2018-11-07T11:09:16.501Z,14.50
2018-11-07T11:11:43.856Z,14.70
2018-11-07T11:14:11.050Z,14.80
2018-11-07T11:16:38.252Z,14.80
2018-11-07T11:19:05.619Z,14.90
2018-11-07T11:21:32.752Z,14.80
2018-11-07T11:23:59.955Z,14.80
2018-11-07T11:26:27.301Z,14.70
2018-11-07T11:28:54.483Z,14.90
2018-11-07T11:31:21.661Z,15.00
2018-11-07T11:33:48.917Z,15.10
2018-11-07T11:36:18.116Z,15.10
2018-11-07T11:38:45.330Z,15.30
2018-11-07T11:41:12.585Z,15.20
2018-11-07T11:43:39.724Z,15.10
2018-11-07T11:46:06.889Z,15.00
2018-11-07T11:48:34.111Z,14.90
2018-11-07T11:51:01.263Z,14.80
2018-11-07T11:53:28.549Z,14.80
2018-11-07T11:55:55.751Z,14.70
2018-11-07T11:58:22.942Z,14.60
2018-11-07T12:00:50.105Z,14.50
2018-11-07T12:03:17.292Z,14.50
2018-11-07T12:05:44.556Z,14.50
2018-11-07T12:08:11.739Z,14.60
2018-11-07T12:10:40.952Z,14.60
2018-11-07T12:13:08.240Z,14.60
2018-11-07T12:15:35.415Z,14.90
2018-11-07T12:18:02.653Z,15.20
2018-11-07T12:20:29.912Z,15.70
2018-11-07T12:22:57.041Z,16.20
2018-11-07T12:25:24.161Z,16.70
2018-11-07T12:27:52.361Z,17.10
2018-11-07T12:30:20.789Z,17.50
2018-11-07T12:32:49.107Z,17.60
2018-11-07T12:35:16.732Z,17.70
2018-11-07T12:37:44.005Z,18.00
2018-11-07T12:40:11.779Z,18.00
2018-11-07T12:42:39.038Z,18.20
2018-11-07T12:45:07.756Z,18.30
2018-11-07T12:47:34.962Z,18.60
2018-11-07T12:50:02.280Z,18.80
2018-11-07T12:52:29.457Z,18.90
2018-11-07T12:54:56.746Z,19.30
2018-11-07T12:57:24.075Z,19.50
2018-11-07T12:59:51.174Z,19.70
2018-11-07T13:02:18.417Z,19.60
2018-11-07T13:04:45.794Z,19.40
2018-11-07T13:07:13.181Z,19.30
2018-11-07T13:09:40.356Z,19.30
2018-11-07T13:12:07.644Z,19.30
2018-11-07T13:14:34.894Z,19.50
2018-11-07T13:17:02.045Z,19.70
2018-11-07T13:19:29.209Z,19.50
2018-11-07T13:21:56.977Z,19.70
2018-11-07T13:24:24.136Z,19.80
2018-11-07T13:26:51.331Z,19.90
2018-11-07T13:29:22.174Z,20.00
2018-11-07T13:31:49.545Z,19.90
2018-11-07T13:34:16.944Z,19.70
2018-11-07T13:36:44.062Z,19.90
2018-11-07T13:39:12.380Z,19.90
2018-11-07T13:41:39.536Z,20.10
2018-11-07T13:44:06.712Z,20.20
2018-11-07T13:46:34.320Z,20.10
2018-11-07T13:49:01.612Z,20.20
2018-11-07T13:51:28.756Z,20.40
2018-11-07T13:53:55.855Z,20.40
2018-11-07T13:56:22.985Z,20.40
2018-11-07T13:58:50.242Z,20.40
2018-11-07T14:01:17.542Z,20.50
2018-11-07T14:03:44.656Z,20.40
2018-11-07T14:06:11.757Z,20.00
2018-11-07T14:08:38.903Z,19.90
2018-11-07T14:11:06.060Z,20.00
2018-11-07T14:13:33.240Z,20.20
2018-11-07T14:16:00.614Z,20.50
2018-11-07T14:18:27.640Z,20.30
2018-11-07T14:20:54.810Z,20.20
2018-11-07T14:23:21.934Z,20.40
2018-11-07T14:25:49.149Z,20.40
2018-11-07T14:28:16.705Z,20.20
2018-11-07T14:30:43.755Z,19.80
2018-11-07T14:33:11.869Z,19.50
2018-11-07T14:35:39.126Z,18.90
2018-11-07T14:38:06.464Z,18.60
2018-11-07T14:40:34.312Z,18.60
2018-11-07T14:43:01.564Z,18.70
2018-11-07T14:45:28.758Z,18.50
2018-11-07T14:47:57.065Z,18.30
2018-11-07T14:50:24.306Z,18.10
2018-11-07T14:52:51.503Z,18.00
2018-11-07T14:55:18.787Z,17.90
2018-11-07T14:57:46.035Z,17.80
2018-11-07T15:00:14.392Z,17.70
2018-11-07T15:02:43.259Z,17.70
2018-11-07T15:05:11.574Z,17.50
2018-11-07T15:07:39.300Z,17.40
2018-11-07T15:10:07.454Z,17.30
2018-11-07T15:12:34.877Z,17.30
2018-11-07T15:15:02.079Z,17.20
2018-11-07T15:17:39.333Z,17.10
2018-11-07T15:20:07.524Z,17.10
2018-11-07T15:22:34.956Z,16.90
2018-11-07T15:25:02.294Z,16.90
2018-11-07T15:27:30.642Z,16.80
2018-11-07T15:29:57.885Z,16.70
2018-11-07T15:32:28.738Z,16.60
2018-11-07T15:34:55.915Z,16.40
2018-11-07T15:37:23.808Z,16.40
2018-11-07T15:39:51.106Z,16.30
2018-11-07T15:42:18.318Z,16.20
2018-11-07T15:44:46.018Z,16.10
2018-11-07T15:47:13.185Z,16.00
2018-11-07T15:49:41.748Z,15.90
2018-11-07T15:52:09.550Z,15.80
2018-11-07T15:54:38.770Z,15.70
2018-11-07T15:57:06.021Z,15.40
2018-11-07T15:59:33.415Z,15.40
2018-11-07T16:02:00.578Z,15.40
2018-11-07T16:04:27.849Z,15.30
2018-11-07T16:06:55.186Z,15.20
2018-11-07T16:09:23.550Z,15.10
2018-11-07T16:11:50.775Z,15.00
2018-11-07T16:14:18.141Z,14.90
2018-11-07T16:16:45.316Z,14.80
2018-11-07T16:19:12.466Z,14.70
2018-11-07T16:21:39.909Z,14.70
2018-11-07T16:24:07.357Z,14.60
2018-11-07T16:26:34.575Z,14.50
2018-11-07T16:29:03.148Z,14.50
2018-11-07T16:31:30.476Z,14.50
2018-11-07T16:33:59.666Z,14.40
2018-11-07T16:36:26.878Z,14.30
2018-11-07T16:38:54.041Z,14.30
2018-11-07T16:41:21.354Z,14.20
2018-11-07T16:43:48.414Z,14.10
2018-11-07T16:46:15.626Z,14.00
2018-11-07T16:48:42.874Z,14.00
2018-11-07T16:51:10.060Z,14.00
2018-11-07T16:53:37.324Z,13.90
2018-11-07T16:56:05.271Z,13.90
2018-11-07T16:58:35.557Z,13.80
2018-11-07T17:01:02.690Z,13.80
2018-11-07T17:03:29.949Z,13.80
2018-11-07T17:05:57.313Z,13.70
2018-11-07T17:08:24.550Z,13.70
2018-11-07T17:10:51.654Z,13.70
2018-11-07T17:13:19.312Z,13.60
2018-11-07T17:15:46.478Z,13.60
2018-11-07T17:18:13.763Z,13.60
2018-11-07T17:20:41.062Z,13.60
2018-11-07T17:23:08.333Z,13.80
2018-11-07T17:25:35.553Z,13.80
2018-11-07T17:28:02.809Z,13.80
2018-11-07T17:30:30.131Z,13.80
2018-11-07T17:32:57.373Z,13.80
2018-11-07T17:35:24.661Z,13.70
2018-11-07T17:37:51.870Z,13.60
2018-11-07T17:40:20.410Z,13.60
2018-11-07T17:42:47.696Z,13.60
2018-11-07T17:45:16.459Z,13.60
2018-11-07T17:47:44.153Z,13.60
2018-11-07T17:50:12.677Z,13.70
2018-11-07T17:52:40.369Z,13.70
2018-11-07T17:55:08.570Z,13.70
2018-11-07T17:57:35.824Z,13.70
2018-11-07T18:00:03.632Z,13.70
2018-11-07T18:02:31.286Z,13.70
2018-11-07T18:04:58.459Z,13.80
2018-11-07T18:07:25.651Z,13.90
2018-11-07T18:09:52.971Z,14.00
2018-11-07T18:12:20.085Z,14.10
2018-11-07T18:14:47.262Z,14.10
2018-11-07T18:17:14.629Z,14.00
2018-11-07T18:19:41.956Z,13.90
2018-11-07T18:22:09.424Z,13.80
2018-11-07T18:24:36.585Z,13.70
2018-11-07T18:27:03.864Z,13.60
2018-11-07T18:29:30.983Z,13.60
2018-11-07T18:31:58.136Z,13.60
2018-11-07T18:34:25.309Z,13.60
2018-11-07T18:36:52.505Z,13.70
2018-11-07T18:39:20.585Z,13.70
2018-11-07T18:41:48.225Z,13.80
2018-11-07T18:44:16.008Z,13.80
2018-11-07T18:46:43.116Z,13.80
2018-11-07T18:49:11.411Z,13.80
2018-11-07T18:51:38.561Z,13.80
2018-11-07T18:54:06.179Z,13.80
2018-11-07T18:56:33.370Z,13.80
2018-11-07T18:59:00.790Z,13.70
2018-11-07T19:01:27.946Z,13.60
2018-11-07T19:03:55.224Z,13.50
2018-11-07T19:06:22.549Z,13.50
2018-11-07T19:08:49.776Z,13.40
2018-11-07T19:11:17.050Z,13.40
2018-11-07T19:13:44.317Z,13.40
2018-11-07T19:16:11.591Z,13.40
2018-11-07T19:18:38.836Z,13.30
2018-11-07T19:21:05.989Z,13.30
2018-11-07T19:23:33.206Z,13.30
2018-11-07T19:26:01.626Z,13.30
2018-11-07T19:28:29.153Z,13.20
2018-11-07T19:30:56.389Z,13.20
2018-11-07T19:33:23.657Z,13.20
2018-11-07T19:35:51.015Z,13.20
2018-11-07T19:38:18.216Z,13.20
2018-11-07T19:40:46.574Z,13.10
2018-11-07T19:43:13.897Z,13.10
2018-11-07T19:45:41.160Z,13.10
2018-11-07T19:48:08.494Z,13.00
2018-11-07T19:50:35.640Z,13.00
2018-11-07T19:53:02.887Z,13.00
2018-11-07T19:55:30.076Z,13.00
2018-11-07T19:57:59.168Z,13.00
2018-11-07T20:00:27.268Z,13.00
2018-11-07T20:02:54.617Z,12.90
2018-11-07T20:05:22.024Z,12.90
2018-11-07T20:07:50.359Z,12.90
2018-11-07T20:10:18.783Z,12.90
2018-11-07T20:12:46.146Z,12.80
2018-11-07T20:15:14.568Z,12.90
2018-11-07T20:17:41.901Z,12.90
2018-11-07T20:20:09.655Z,12.90
2018-11-07T20:22:36.928Z,12.90
2018-11-07T20:25:06.168Z,12.90
2018-11-07T20:27:33.912Z,12.80
2018-11-07T20:30:01.140Z,12.80
2018-11-07T20:32:28.854Z,12.70
2018-11-07T20:34:56.193Z,12.70
2018-11-07T20:37:23.405Z,12.60
2018-11-07T20:39:51.203Z,12.60
2018-11-07T20:42:18.420Z,12.60
2018-11-07T20:44:46.468Z,12.60
2018-11-07T20:47:14.753Z,12.60
2018-11-07T20:49:41.966Z,12.50
2018-11-07T20:52:09.368Z,12.50
2018-11-07T20:54:36.649Z,12.50
2018-11-07T20:59:37.767Z,12.40
2018-11-07T21:02:04.958Z,12.40
2018-11-07T21:04:32.140Z,12.40
2018-11-07T21:06:59.365Z,12.40
2018-11-07T21:09:26.616Z,12.40
2018-11-07T21:11:53.837Z,12.40
2018-11-07T21:14:21.025Z,12.40
2018-11-07T21:16:48.203Z,12.40
2018-11-07T21:19:15.366Z,12.40
2018-11-07T21:21:46.374Z,12.30
2018-11-07T21:24:13.912Z,12.20
2018-11-07T21:26:41.114Z,12.20
2018-11-07T21:29:08.273Z,12.20
2018-11-07T21:31:35.440Z,12.20
2018-11-07T21:34:02.734Z,12.20
2018-11-07T21:36:30.052Z,12.20
2018-11-07T21:38:57.253Z,12.20
2018-11-07T21:41:24.355Z,12.20
2018-11-07T21:43:51.596Z,12.20
2018-11-07T21:46:18.782Z,12.30
2018-11-07T21:48:46.013Z,12.30
2018-11-07T21:51:13.212Z,12.20
2018-11-07T21:53:40.394Z,12.20
2018-11-07T21:56:07.543Z,12.20
2018-11-07T21:58:34.780Z,12.20
2018-11-07T22:01:01.875Z,12.10
2018-11-07T22:03:29.091Z,12.10
2018-11-07T22:05:56.245Z,12.10
2018-11-07T22:08:23.380Z,12.20
2018-11-07T22:10:50.517Z,12.20
2018-11-07T22:13:17.686Z,12.20
2018-11-07T22:15:44.786Z,12.20
2018-11-07T22:18:11.952Z,12.20
2018-11-07T22:20:39.108Z,12.20
2018-11-07T22:23:06.290Z,12.20
2018-11-07T22:25:34.560Z,12.30
2018-11-07T22:28:01.737Z,12.30
2018-11-07T22:30:28.938Z,12.30
2018-11-07T22:32:56.061Z,12.30
2018-11-07T22:35:23.189Z,12.30
2018-11-07T22:37:50.410Z,12.30
2018-11-07T22:40:18.630Z,12.40
2018-11-07T22:42:45.784Z,12.40
2018-11-07T22:45:13.511Z,12.40
2018-11-07T22:47:40.605Z,12.40
2018-11-07T22:50:09.452Z,12.40
2018-11-07T22:52:36.616Z,12.30
2018-11-07T22:55:03.893Z,12.30
2018-11-07T22:57:31.025Z,12.30
2018-11-07T22:59:58.200Z,12.50
2018-11-07T23:02:25.538Z,12.50
2018-11-07T23:04:52.735Z,12.50
2018-11-07T23:07:19.914Z,12.60
2018-11-07T23:09:47.369Z,12.50
2018-11-07T23:12:14.481Z,12.50
2018-11-07T23:14:41.673Z,12.40
2018-11-07T23:17:08.861Z,12.40
2018-11-07T23:19:36.009Z,12.40
2018-11-07T23:22:05.307Z,12.40
2018-11-07T23:24:32.431Z,12.40
2018-11-07T23:26:59.557Z,12.40
2018-11-07T23:29:26.705Z,12.40
2018-11-07T23:31:53.808Z,12.40
2018-11-07T23:34:20.904Z,12.40
2018-11-07T23:36:48.187Z,12.40
2018-11-07T23:39:15.331Z,12.40
2018-11-07T23:41:43.511Z,12.40
2018-11-07T23:44:10.626Z,12.40
2018-11-07T23:46:37.779Z,12.40
2018-11-07T23:49:04.914Z,12.40
2018-11-07T23:51:32.068Z,12.40
2018-11-07T23:53:59.243Z,12.40
2018-11-07T23:56:26.638Z,12.40
2018-11-07T23:58:53.777Z,12.40
